createdAt,value
2023-05-06T00:05:56.174Z,6.41
2023-05-06T00:20:58.286Z,6.04
2023-05-06T00:36:00.257Z,5.76
2023-05-06T00:51:02.384Z,5.50
2023-05-06T01:06:30.091Z,5.42
2023-05-06T01:21:35.091Z,5.34
2023-05-06T01:37:20.464Z,5.59
2023-05-06T01:52:22.726Z,5.63
2023-05-06T02:07:24.689Z,5.60
2023-05-06T02:22:26.678Z,5.46
2023-05-06T02:37:28.714Z,5.34
2023-05-06T02:52:30.874Z,5.26
2023-05-06T03:07:32.930Z,5.34
2023-05-06T03:22:34.892Z,5.43
2023-05-06T03:37:36.870Z,6.15
2023-05-06T03:52:39.165Z,6.08
2023-05-06T04:07:41.112Z,5.91
2023-05-06T04:22:43.026Z,5.89
2023-05-06T04:37:45.156Z,6.03
2023-05-06T04:52:47.121Z,6.25
2023-05-06T05:07:49.080Z,6.60
2023-05-06T05:22:51.059Z,6.91
2023-05-06T05:37:53.049Z,7.41
2023-05-06T05:52:55.021Z,7.78
2023-05-06T06:07:57.060Z,8.52
2023-05-06T06:22:59.112Z,9.32
2023-05-06T06:38:01.086Z,9.67
2023-05-06T06:53:04.878Z,9.87
2023-05-06T07:08:08.239Z,10.41
2023-05-06T07:23:10.322Z,11.27
2023-05-06T07:38:12.324Z,11.67
2023-05-06T07:53:14.447Z,12.09
2023-05-06T08:08:16.396Z,12.65
2023-05-06T08:23:18.439Z,13.29
2023-05-06T08:38:20.488Z,13.26
2023-05-06T08:53:23.056Z,12.89
2023-05-06T09:08:25.099Z,13.04
2023-05-06T09:23:27.195Z,12.96
2023-05-06T09:38:29.381Z,12.96
2023-05-06T09:53:33.193Z,12.86
2023-05-06T10:08:37.035Z,12.64
2023-05-06T10:23:49.368Z,12.44
2023-05-06T10:38:57.720Z,12.10
2023-05-06T10:54:10.458Z,11.77
2023-05-06T11:09:23.412Z,11.58
2023-05-06T11:24:39.231Z,11.34
2023-05-06T11:39:48.823Z,11.20
2023-05-06T11:54:54.222Z,11.16
2023-05-06T12:09:56.578Z,11.04
2023-05-06T12:24:58.580Z,11.06
2023-05-06T12:40:00.809Z,10.86
2023-05-06T12:55:02.917Z,10.65
2023-05-06T13:10:06.407Z,10.57
2023-05-06T13:25:09.767Z,10.57
2023-05-06T13:40:12.782Z,10.46
2023-05-06T13:55:16.004Z,10.28
2023-05-06T14:10:21.201Z,10.21
2023-05-06T14:25:27.165Z,10.09
2023-05-06T14:40:29.432Z,10.13
2023-05-06T14:55:31.485Z,10.06
2023-05-06T15:10:33.810Z,9.94
2023-05-06T15:25:36.698Z,9.93
2023-05-06T15:40:42.854Z,9.89
2023-05-06T15:55:49.773Z,9.79
2023-05-06T16:10:58.530Z,9.78
2023-05-06T16:26:01.405Z,9.72
2023-05-06T16:41:03.648Z,9.56
2023-05-06T16:56:05.959Z,9.28
2023-05-06T17:11:08.022Z,9.06
2023-05-06T17:26:10.638Z,8.93
2023-05-06T17:41:12.985Z,8.75
2023-05-06T17:56:14.941Z,8.62
2023-05-06T18:11:17.740Z,8.53
2023-05-06T18:26:35.890Z,8.45
2023-05-06T18:41:42.222Z,8.34
2023-05-06T18:56:44.204Z,8.25
2023-05-06T19:11:47.720Z,8.14
2023-05-06T19:26:49.828Z,8.00
2023-05-06T19:41:54.126Z,7.89
2023-05-06T19:56:56.288Z,7.85
2023-05-06T20:11:58.812Z,7.78
2023-05-06T20:27:00.864Z,7.70
2023-05-06T20:42:03.172Z,7.66
2023-05-06T20:57:05.195Z,7.63
2023-05-06T21:12:07.274Z,7.59
2023-05-06T21:27:09.434Z,7.55
2023-05-06T21:42:11.473Z,7.48
2023-05-06T21:57:13.488Z,7.43
2023-05-06T22:12:15.765Z,7.41
2023-05-06T22:27:17.802Z,7.28
2023-05-06T22:42:20.799Z,7.24
2023-05-06T22:57:25.623Z,7.21
2023-05-06T23:12:31.741Z,7.14
2023-05-06T23:27:33.676Z,7.21
2023-05-06T23:42:35.738Z,7.18
2023-05-06T23:57:37.985Z,7.11
